Time;durP1;ratioP1;P1;durP2;ratioP2;P2;SDS_P1;SDS_P2;PMS_P1;PMS_P2;Temp;Humidity;BMP_temperature;BMP_pressure;BME280_temperature;BME280_humidity;BME280_pressure;Samples;Min_cycle;Max_cycle;Signal;HPM_P1;HPM_P2
2021/01/21 00:02:22;;;;;;;12.35;6.93;;;1.30;95.90;;;;;;5127992;27;27339;-49
2021/01/21 00:05:07;;;;;;;11.60;7.43;;;1.20;95.90;;;;;;5124334;27;27328;-50
2021/01/21 00:07:52;;;;;;;10.18;6.72;;;1.20;95.90;;;;;;5127124;27;27879;-47
2021/01/21 00:10:37;;;;;;;11.10;7.05;;;1.20;95.90;;;;;;5127328;27;27347;-45
2021/01/21 00:13:21;;;;;;;12.77;7.38;;;1.20;95.90;;;;;;5127617;27;27405;-49
2021/01/21 00:16:06;;;;;;;14.80;7.15;;;1.20;95.90;;;;;;5127762;27;27336;-49
2021/01/21 00:18:50;;;;;;;15.77;7.93;;;1.30;95.90;;;;;;5127501;27;27399;-46
2021/01/21 00:21:35;;;;;;;12.45;8.18;;;1.20;95.80;;;;;;5127371;27;27469;-50
2021/01/21 00:24:19;;;;;;;13.00;7.45;;;1.20;95.90;;;;;;5127696;27;27449;-48
2021/01/21 00:27:04;;;;;;;11.90;7.45;;;1.20;95.80;;;;;;5127635;27;27405;-47
2021/01/21 00:29:48;;;;;;;12.43;7.75;;;1.20;95.90;;;;;;5126795;27;27981;-50
2021/01/21 00:32:33;;;;;;;11.25;6.93;;;1.20;95.90;;;;;;5126676;27;27491;-49
2021/01/21 00:35:17;;;;;;;11.50;7.35;;;1.20;95.90;;;;;;5127201;27;27475;-47
2021/01/21 00:38:02;;;;;;;11.20;7.18;;;1.20;95.90;;;;;;5127085;27;27422;-46
2021/01/21 00:40:46;;;;;;;10.38;6.57;;;1.20;95.90;;;;;;5127059;27;27442;-46
2021/01/21 00:43:31;;;;;;;11.25;7.05;;;1.20;95.90;;;;;;5127212;27;27432;-43
2021/01/21 00:46:15;;;;;;;12.02;6.47;;;1.20;96.00;;;;;;5127060;27;27468;-47
2021/01/21 00:49:00;;;;;;;12.60;6.93;;;1.20;96.00;;;;;;5124047;27;27647;-46
2021/01/21 00:51:45;;;;;;;12.00;6.65;;;1.20;96.10;;;;;;5123639;27;27398;-46
2021/01/21 00:54:30;;;;;;;12.10;7.25;;;1.20;96.10;;;;;;5123756;27;27402;-50
2021/01/21 00:57:15;;;;;;;11.15;7.35;;;1.20;96.10;;;;;;5122797;27;27367;-47
2021/01/21 01:00:00;;;;;;;13.20;6.40;;;1.20;96.10;;;;;;5126604;27;27390;-47
2021/01/21 01:02:44;;;;;;;12.23;6.97;;;1.30;96.00;;;;;;5125908;27;27386;-47
2021/01/21 01:05:29;;;;;;;10.25;6.57;;;1.30;96.00;;;;;;5126647;27;27624;-48
2021/01/21 01:08:14;;;;;;;10.07;5.88;;;1.30;96.00;;;;;;5125010;27;27417;-47
2021/01/21 01:10:58;;;;;;;13.68;6.85;;;1.30;95.90;;;;;;5126435;27;27386;-46
2021/01/21 01:13:47;;;;;;;10.32;6.68;;;1.30;95.90;;;;;;5123529;27;27456;-46
2021/01/21 01:16:32;;;;;;;10.10;5.90;;;1.30;95.80;;;;;;5122686;27;27405;-46
2021/01/21 01:19:22;;;;;;;12.18;6.28;;;1.30;95.80;;;;;;5122466;27;27407;-46
2021/01/21 01:22:06;;;;;;;10.13;6.22;;;1.30;95.80;;;;;;5126737;27;27382;-46
2021/01/21 01:24:51;;;;;;;6.95;5.28;;;1.40;95.70;;;;;;5123353;27;27369;-47
2021/01/21 01:27:36;;;;;;;10.00;5.95;;;1.40;95.70;;;;;;5123260;27;27386;-46
2021/01/21 01:30:21;;;;;;;11.40;5.80;;;1.40;95.70;;;;;;5107708;27;27594;-50
2021/01/21 01:33:07;;;;;;;7.45;5.15;;;1.40;95.70;;;;;;5122964;27;27331;-47
2021/01/21 01:35:55;;;;;;;9.90;5.05;;;1.40;95.70;;;;;;5126202;27;27393;-47
2021/01/21 01:38:40;;;;;;;9.80;5.88;;;1.40;95.60;;;;;;5122412;27;27382;-48
2021/01/21 01:41:44;;;;;;;8.50;4.85;;;1.40;95.70;;;;;;5122828;27;26963;-47
2021/01/21 01:44:29;;;;;;;9.20;4.95;;;1.40;95.60;;;;;;5126059;27;27354;-47
2021/01/21 01:47:15;;;;;;;7.57;4.82;;;1.50;95.60;;;;;;5122190;27;27863;-47
2021/01/21 01:50:00;;;;;;;6.75;4.90;;;1.50;95.60;;;;;;5126373;27;27586;-46
2021/01/21 01:52:45;;;;;;;7.07;4.40;;;1.50;95.60;;;;;;5122221;27;27399;-47
2021/01/21 01:55:40;;;;;;;8.18;5.07;;;1.50;95.60;;;;;;5126219;27;27386;-48
2021/01/21 01:58:43;;;;;;;7.30;4.53;;;1.50;95.50;;;;;;5126109;27;27404;-47
2021/01/21 02:01:41;;;;;;;8.95;5.63;;;1.50;95.50;;;;;;5122733;27;27402;-47
2021/01/21 02:04:32;;;;;;;8.95;4.80;;;1.50;95.50;;;;;;5094839;27;27386;-44
2021/01/21 02:07:28;;;;;;;7.40;4.28;;;1.50;95.50;;;;;;5123246;27;27686;-48
2021/01/21 02:10:21;;;;;;;7.03;3.90;;;1.50;95.50;;;;;;5121720;27;27304;-50
2021/01/21 02:13:46;;;;;;;13.95;5.13;;;1.60;95.50;;;;;;5123745;27;27420;-47
2021/01/21 02:16:57;;;;;;;6.85;4.20;;;1.60;95.40;;;;;;5121487;27;27378;-46
2021/01/21 02:20:07;;;;;;;5.60;3.90;;;1.60;95.40;;;;;;5122714;27;27594;-47
2021/01/21 02:23:22;;;;;;;6.00;3.58;;;1.60;95.40;;;;;;5121699;27;27382;-47
2021/01/21 02:26:10;;;;;;;6.13;3.78;;;1.60;95.40;;;;;;5125712;27;27373;-46
2021/01/21 02:29:08;;;;;;;6.68;3.88;;;1.60;95.40;;;;;;5122413;27;27481;-47
2021/01/21 02:32:02;;;;;;;8.50;4.05;;;1.60;95.40;;;;;;5124270;27;27461;-49
2021/01/21 02:34:51;;;;;;;7.03;3.78;;;1.70;95.40;;;;;;5125551;27;27538;-47
2021/01/21 02:37:51;;;;;;;6.75;4.18;;;1.70;95.40;;;;;;5121205;27;27473;-47
2021/01/21 02:40:35;;;;;;;6.68;3.47;;;1.70;95.40;;;;;;5121895;27;27418;-47
2021/01/21 02:43:33;;;;;;;7.57;4.60;;;1.70;95.40;;;;;;5122173;27;27462;-47
2021/01/21 02:46:19;;;;;;;7.05;3.85;;;1.70;95.40;;;;;;5121775;27;27437;-46
2021/01/21 02:49:04;;;;;;;6.72;3.75;;;1.70;95.30;;;;;;5121765;27;27450;-47
2021/01/21 02:52:07;;;;;;;7.13;3.97;;;1.70;95.30;;;;;;5106570;27;27449;-47
2021/01/21 02:54:53;;;;;;;6.70;4.10;;;1.70;95.40;;;;;;5121230;27;27435;-47
2021/01/21 02:58:13;;;;;;;7.18;3.67;;;1.70;95.30;;;;;;5125267;27;27469;-49
2021/01/21 03:00:58;;;;;;;5.65;3.47;;;1.70;95.40;;;;;;5103186;27;27521;-49
2021/01/21 03:03:42;;;;;;;6.53;3.95;;;1.70;95.30;;;;;;5124470;27;27348;-49
2021/01/21 03:06:33;;;;;;;5.45;3.53;;;1.70;95.30;;;;;;5120886;27;27414;-44
2021/01/21 03:09:19;;;;;;;5.60;3.35;;;1.70;95.30;;;;;;5121030;27;27449;-50
2021/01/21 03:12:18;;;;;;;5.78;2.97;;;1.70;95.30;;;;;;5106311;27;27444;-47
2021/01/21 03:15:05;;;;;;;4.30;2.90;;;1.80;95.30;;;;;;5124406;27;27323;-51
2021/01/21 03:17:55;;;;;;;4.47;2.80;;;1.70;95.30;;;;;;5121037;27;27505;-46
2021/01/21 03:20:45;;;;;;;3.83;2.47;;;1.70;95.30;;;;;;5121761;27;27373;-47
2021/01/21 03:23:42;;;;;;;5.25;2.58;;;1.70;95.30;;;;;;5120636;27;27389;-48
2021/01/21 03:26:27;;;;;;;5.78;3.40;;;1.70;95.30;;;;;;5123114;27;26996;-51
2021/01/21 03:29:32;;;;;;;4.65;2.47;;;1.80;95.30;;;;;;5124672;27;27400;-49
2021/01/21 03:32:16;;;;;;;3.58;2.08;;;1.80;95.20;;;;;;5128070;27;27418;-48
2021/01/21 03:35:11;;;;;;;7.00;2.88;;;1.80;95.30;;;;;;5124816;27;27468;-49
2021/01/21 03:37:55;;;;;;;3.72;2.13;;;1.80;95.20;;;;;;5128175;27;27343;-51
2021/01/21 03:40:42;;;;;;;3.90;2.22;;;1.90;95.20;;;;;;5125955;27;27450;-52
2021/01/21 03:43:27;;;;;;;3.28;2.22;;;1.90;95.20;;;;;;5124165;27;27868;-52
2021/01/21 03:46:33;;;;;;;3.03;1.80;;;1.90;95.10;;;;;;5124139;27;27591;-49
2021/01/21 03:49:18;;;;;;;3.38;2.35;;;1.90;95.10;;;;;;5123913;27;27488;-48
2021/01/21 03:52:09;;;;;;;4.55;2.20;;;1.90;95.00;;;;;;5127863;27;27336;-47
2021/01/21 03:54:59;;;;;;;4.45;1.90;;;1.90;95.00;;;;;;5124449;27;27499;-47
2021/01/21 03:57:44;;;;;;;3.13;1.70;;;2.00;95.00;;;;;;5124716;27;27382;-47
2021/01/21 04:00:44;;;;;;;2.50;1.80;;;2.00;94.90;;;;;;5124015;27;27369;-47
2021/01/21 04:03:29;;;;;;;4.03;1.60;;;2.00;94.90;;;;;;5124013;27;27366;-48
2021/01/21 04:06:17;;;;;;;2.53;1.60;;;2.00;94.90;;;;;;5123922;27;27394;-47
2021/01/21 04:09:03;;;;;;;3.40;2.10;;;2.00;94.90;;;;;;5123533;27;27436;-51
2021/01/21 04:12:05;;;;;;;2.88;1.88;;;2.00;94.90;;;;;;5127608;27;27323;-47
2021/01/21 04:14:50;;;;;;;2.40;1.90;;;2.00;94.80;;;;;;5123493;27;27343;-48
2021/01/21 04:17:36;;;;;;;1.92;1.55;;;2.10;94.80;;;;;;5124397;27;27945;-47
2021/01/21 04:20:21;;;;;;;3.42;1.80;;;2.10;94.80;;;;;;5127413;27;27381;-48
2021/01/21 04:23:09;;;;;;;3.17;1.73;;;2.10;94.80;;;;;;5123622;27;27624;-48
2021/01/21 04:25:54;;;;;;;2.80;1.73;;;2.10;94.80;;;;;;5123519;27;27417;-46
2021/01/21 04:28:41;;;;;;;2.63;1.55;;;2.10;94.80;;;;;;5123518;27;27412;-47
2021/01/21 04:31:25;;;;;;;5.65;2.03;;;2.10;94.70;;;;;;5123166;27;27418;-47
2021/01/21 04:34:10;;;;;;;3.15;1.80;;;2.10;94.70;;;;;;5124095;27;27367;-48
2021/01/21 04:36:55;;;;;;;2.13;1.70;;;2.20;94.70;;;;;;5123353;27;27453;-47
2021/01/21 04:39:58;;;;;;;3.20;1.50;;;2.10;94.70;;;;;;5127331;27;27852;-48
2021/01/21 04:42:46;;;;;;;2.78;1.38;;;2.20;94.70;;;;;;5123696;27;27332;-48
2021/01/21 04:45:31;;;;;;;4.40;1.40;;;2.10;94.70;;;;;;5123046;27;27331;-47
2021/01/21 04:48:15;;;;;;;2.45;1.42;;;2.20;94.70;;;;;;5127290;27;27415;-47
2021/01/21 04:51:09;;;;;;;3.00;1.60;;;2.20;94.60;;;;;;5109403;27;27485;-47
2021/01/21 04:53:58;;;;;;;3.00;1.40;;;2.20;94.60;;;;;;5123133;27;27385;-47
2021/01/21 04:57:03;;;;;;;4.40;1.33;;;2.20;94.70;;;;;;5122986;27;27316;-47
2021/01/21 04:59:59;;;;;;;2.00;1.58;;;2.20;94.60;;;;;;5122762;27;27406;-48
2021/01/21 05:03:05;;;;;;;2.10;1.58;;;2.20;94.60;;;;;;5122629;27;27840;-49
2021/01/21 05:06:16;;;;;;;2.10;1.52;;;2.20;94.60;;;;;;5124833;27;27398;-45
2021/01/21 05:09:03;;;;;;;2.20;1.42;;;2.20;94.60;;;;;;5108292;27;27324;-47
2021/01/21 05:11:49;;;;;;;1.65;1.30;;;2.20;94.60;;;;;;5126686;27;27380;-48
2021/01/21 05:14:46;;;;;;;3.55;1.73;;;2.20;94.60;;;;;;5126336;27;27368;-48
2021/01/21 05:17:49;;;;;;;2.30;1.40;;;2.20;94.60;;;;;;5126777;27;27357;-49
2021/01/21 05:21:00;;;;;;;2.08;1.20;;;2.20;94.50;;;;;;5129873;27;27433;-48
2021/01/21 05:24:04;;;;;;;2.10;1.73;;;2.20;94.50;;;;;;5125531;27;27490;-49
2021/01/21 05:27:13;;;;;;;5.32;1.63;;;2.20;94.50;;;;;;5123505;27;28064;-47
2021/01/21 05:30:15;;;;;;;1.50;1.17;;;2.20;94.50;;;;;;5122105;27;27414;-46
2021/01/21 05:33:00;;;;;;;2.67;1.50;;;2.20;94.50;;;;;;5125561;27;27430;-47
2021/01/21 05:36:09;;;;;;;2.08;1.17;;;2.30;94.50;;;;;;5122656;27;27415;-47
2021/01/21 05:39:03;;;;;;;3.70;1.23;;;2.30;94.50;;;;;;5122404;27;27917;-45
2021/01/21 05:42:17;;;;;;;3.00;1.40;;;2.20;94.60;;;;;;5122941;27;27644;-46
2021/01/21 05:45:09;;;;;;;1.88;1.15;;;2.30;94.50;;;;;;5122128;27;27426;-45
2021/01/21 05:48:14;;;;;;;1.42;1.10;;;2.30;94.50;;;;;;5125870;27;27437;-47
2021/01/21 05:51:00;;;;;;;2.35;1.50;;;2.30;94.40;;;;;;5126044;27;27863;-47
2021/01/21 05:53:45;;;;;;;1.80;1.20;;;2.30;94.50;;;;;;5107507;27;27605;-48
2021/01/21 05:56:47;;;;;;;1.75;1.30;;;2.30;94.40;;;;;;5122860;27;27387;-48
2021/01/21 05:59:35;;;;;;;3.15;1.48;;;2.30;94.40;;;;;;5107937;27;27474;-48
2021/01/21 06:02:40;;;;;;;1.38;1.17;;;2.30;94.40;;;;;;5113017;27;27511;-47
2021/01/21 06:05:40;;;;;;;2.10;1.25;;;2.30;94.40;;;;;;5121736;27;27428;-48
2021/01/21 06:08:24;;;;;;;2.15;1.40;;;2.30;94.40;;;;;;5124538;27;27421;-48
2021/01/21 06:11:09;;;;;;;2.38;1.23;;;2.30;94.40;;;;;;5125096;27;27422;-46
2021/01/21 06:13:54;;;;;;;3.08;1.52;;;2.30;94.40;;;;;;5125530;27;27402;-47
2021/01/21 06:16:39;;;;;;;1.98;1.10;;;2.30;94.40;;;;;;5122489;27;27382;-50
2021/01/21 06:19:24;;;;;;;2.08;1.35;;;2.30;94.40;;;;;;5125105;27;27355;-48
2021/01/21 06:22:19;;;;;;;1.98;1.40;;;2.30;94.30;;;;;;5122048;27;27373;-47
2021/01/21 06:25:16;;;;;;;1.75;1.23;;;2.40;94.30;;;;;;5121730;27;27812;-48
2021/01/21 06:28:00;;;;;;;3.22;1.65;;;2.40;94.30;;;;;;5125351;27;27390;-48
2021/01/21 06:30:45;;;;;;;2.75;1.70;;;2.40;94.10;;;;;;5107153;27;27336;-49
2021/01/21 06:33:33;;;;;;;3.53;1.63;;;2.40;94.10;;;;;;5124649;27;27397;-49
2021/01/21 06:36:20;;;;;;;2.33;1.70;;;2.50;93.90;;;;;;5125467;27;27438;-49
2021/01/21 06:39:05;;;;;;;4.30;1.55;;;2.50;93.80;;;;;;5125184;27;27461;-47
2021/01/21 06:41:49;;;;;;;2.85;1.50;;;2.60;93.70;;;;;;5124871;27;27396;-48
2021/01/21 06:44:34;;;;;;;1.88;1.30;;;2.60;93.60;;;;;;5124666;27;27430;-52
2021/01/21 06:47:19;;;;;;;2.60;1.55;;;2.60;93.50;;;;;;5121012;27;27465;-52
2021/01/21 06:50:05;;;;;;;2.10;1.40;;;2.70;93.50;;;;;;5124502;27;27632;-51
2021/01/21 06:52:49;;;;;;;2.45;1.60;;;2.70;93.40;;;;;;5122047;27;27441;-49
2021/01/21 06:55:35;;;;;;;2.78;2.10;;;2.70;93.40;;;;;;5124236;27;27434;-49
2021/01/21 06:58:48;;;;;;;2.40;1.70;;;2.80;93.40;;;;;;5124496;27;27456;-50
2021/01/21 07:01:34;;;;;;;3.63;1.70;;;2.80;93.30;;;;;;5122480;27;27477;-47
2021/01/21 07:04:21;;;;;;;2.05;1.67;;;2.90;93.30;;;;;;5129029;27;27467;-50
2021/01/21 07:07:12;;;;;;;2.75;1.13;;;2.90;93.30;;;;;;5128047;27;27717;-50
2021/01/21 07:09:58;;;;;;;2.95;1.30;;;2.90;93.30;;;;;;5125393;27;27484;-49
2021/01/21 07:12:43;;;;;;;2.03;1.52;;;3.00;93.40;;;;;;5113658;27;27488;-48
2021/01/21 07:15:42;;;;;;;3.22;1.48;;;3.10;93.40;;;;;;5110002;27;26911;-51
2021/01/21 07:18:34;;;;;;;2.00;1.27;;;3.10;93.40;;;;;;5127189;27;27415;-52
2021/01/21 07:21:25;;;;;;;2.00;1.25;;;3.20;93.40;;;;;;5128388;27;27970;-50
2021/01/21 07:24:09;;;;;;;2.83;1.52;;;3.20;93.40;;;;;;5128552;27;27421;-51
2021/01/21 07:26:53;;;;;;;2.45;1.50;;;3.20;93.30;;;;;;5113167;27;27327;-49
2021/01/21 07:29:39;;;;;;;2.22;1.48;;;3.30;93.30;;;;;;5127525;27;27378;-50
2021/01/21 07:32:27;;;;;;;2.58;1.38;;;3.30;93.30;;;;;;5128140;27;27395;-48
2021/01/21 07:35:30;;;;;;;1.73;1.52;;;3.40;93.30;;;;;;5128425;27;27418;-48
2021/01/21 07:38:41;;;;;;;2.08;1.30;;;3.40;93.20;;;;;;5128488;27;27332;-47
2021/01/21 07:41:52;;;;;;;2.00;1.38;;;3.50;93.00;;;;;;5125060;27;27402;-49
2021/01/21 07:45:00;;;;;;;2.60;1.40;;;3.50;93.00;;;;;;5127577;27;27456;-53
2021/01/21 07:47:46;;;;;;;1.80;1.25;;;3.60;93.00;;;;;;5127911;27;27433;-52
2021/01/21 07:50:35;;;;;;;1.38;1.15;;;3.60;92.90;;;;;;5128223;27;27411;-50
2021/01/21 07:53:26;;;;;;;3.25;1.52;;;3.70;92.80;;;;;;5128162;27;27369;-48
2021/01/21 07:56:10;;;;;;;2.10;1.27;;;3.80;92.60;;;;;;5127813;27;27483;-46
2021/01/21 07:59:01;;;;;;;2.13;1.40;;;3.90;92.50;;;;;;5112543;27;27489;-48
2021/01/21 08:01:58;;;;;;;4.03;1.40;;;4.10;92.30;;;;;;5128050;27;27384;-47
2021/01/21 08:04:58;;;;;;;1.85;1.25;;;4.20;92.00;;;;;;5127967;27;27391;-47
2021/01/21 08:07:53;;;;;;;3.97;1.20;;;4.40;91.80;;;;;;5126819;27;27377;-52
2021/01/21 08:10:37;;;;;;;2.13;1.20;;;4.50;91.60;;;;;;5127289;27;27354;-48
2021/01/21 08:13:22;;;;;;;0.98;0.90;;;4.70;91.40;;;;;;5127107;27;27389;-50
2021/01/21 08:16:14;;;;;;;1.55;1.00;;;4.90;91.20;;;;;;5127063;27;27377;-47
2021/01/21 08:19:02;;;;;;;3.25;1.08;;;5.20;90.70;;;;;;5127415;27;27433;-47
2021/01/21 08:21:47;;;;;;;1.77;1.20;;;5.40;90.20;;;;;;5127663;27;27455;-47
2021/01/21 08:24:31;;;;;;;1.85;1.13;;;5.60;89.70;;;;;;5127769;27;27405;-50
2021/01/21 08:27:16;;;;;;;2.42;1.40;;;5.70;89.00;;;;;;5127655;27;27403;-48
2021/01/21 08:30:20;;;;;;;3.70;1.30;;;5.70;88.70;;;;;;5127578;27;27477;-49
2021/01/21 08:33:23;;;;;;;2.20;1.13;;;5.80;88.50;;;;;;5123139;27;27485;-50
2021/01/21 08:36:09;;;;;;;2.67;1.20;;;5.90;88.30;;;;;;5126515;27;27417;-47
2021/01/21 08:38:53;;;;;;;1.42;1.05;;;5.90;88.00;;;;;;5126037;27;27584;-47
2021/01/21 08:41:38;;;;;;;2.78;1.40;;;6.00;87.80;;;;;;5123267;27;27422;-47
2021/01/21 08:44:23;;;;;;;3.63;1.27;;;6.00;87.50;;;;;;5127354;27;27441;-49
2021/01/21 08:47:08;;;;;;;2.30;1.35;;;6.10;87.10;;;;;;5127322;27;27448;-49
2021/01/21 08:49:52;;;;;;;2.00;1.27;;;6.30;86.50;;;;;;5126952;27;27452;-51
2021/01/21 08:52:58;;;;;;;1.45;0.90;;;6.60;85.50;;;;;;5126598;27;27477;-47
2021/01/21 08:55:46;;;;;;;2.22;1.30;;;7.00;84.20;;;;;;5127208;27;27416;-48
2021/01/21 08:58:32;;;;;;;2.78;1.40;;;7.30;83.00;;;;;;5127296;27;27426;-52
2021/01/21 09:01:17;;;;;;;2.75;1.38;;;7.60;81.60;;;;;;5126860;27;27373;-52
2021/01/21 09:04:01;;;;;;;2.35;1.00;;;8.00;80.30;;;;;;5126766;27;27425;-50
2021/01/21 09:06:46;;;;;;;1.23;1.05;;;8.30;79.20;;;;;;5125088;27;27472;-45
2021/01/21 09:09:31;;;;;;;1.75;1.08;;;8.60;78.20;;;;;;5126247;27;27480;-46
2021/01/21 09:12:17;;;;;;;3.20;1.08;;;8.90;77.30;;;;;;5126334;27;27372;-47
2021/01/21 09:15:12;;;;;;;1.30;1.00;;;9.10;76.10;;;;;;5126838;27;27337;-48
2021/01/21 09:18:04;;;;;;;1.13;1.02;;;9.40;75.60;;;;;;5126540;27;27404;-46
2021/01/21 09:20:50;;;;;;;3.50;1.17;;;9.60;74.70;;;;;;5126810;27;27407;-46
2021/01/21 09:23:35;;;;;;;2.63;1.40;;;9.80;74.10;;;;;;5125761;27;27499;-47
2021/01/21 09:26:24;;;;;;;2.55;1.25;;;10.10;73.40;;;;;;5126362;27;27474;-47
2021/01/21 09:29:09;;;;;;;1.55;1.10;;;10.40;72.30;;;;;;5126604;27;27397;-49
2021/01/21 09:31:53;;;;;;;1.33;1.02;;;10.70;71.60;;;;;;5125736;27;27472;-49
2021/01/21 09:34:38;;;;;;;1.60;1.27;;;10.90;70.80;;;;;;5126542;27;27405;-48
2021/01/21 09:37:23;;;;;;;1.30;1.20;;;10.60;71.20;;;;;;5126495;27;27399;-49
2021/01/21 09:40:09;;;;;;;1.55;1.02;;;10.30;71.80;;;;;;5126433;27;27350;-47
2021/01/21 09:42:56;;;;;;;3.15;1.20;;;10.40;71.80;;;;;;5126322;27;27396;-49
2021/01/21 09:45:41;;;;;;;2.28;1.30;;;10.40;71.70;;;;;;5126209;27;26865;-47
2021/01/21 09:48:25;;;;;;;1.52;1.35;;;10.30;72.00;;;;;;5125745;27;27384;-46
2021/01/21 09:51:10;;;;;;;1.85;1.25;;;10.20;72.40;;;;;;5125734;27;27401;-49
2021/01/21 09:53:54;;;;;;;2.22;1.45;;;10.30;72.10;;;;;;5122953;27;27479;-47
2021/01/21 09:56:39;;;;;;;2.78;1.50;;;10.50;72.20;;;;;;5126253;27;27337;-48
2021/01/21 09:59:23;;;;;;;2.35;1.30;;;10.50;71.80;;;;;;5125819;27;27371;-48
2021/01/21 10:02:08;;;;;;;1.90;1.30;;;10.40;72.20;;;;;;5122668;27;27350;-47
2021/01/21 10:04:53;;;;;;;2.60;1.35;;;10.50;72.30;;;;;;5122684;27;27316;-46
2021/01/21 10:07:38;;;;;;;1.77;1.35;;;10.90;71.60;;;;;;5124880;27;27381;-47
2021/01/21 10:10:22;;;;;;;3.47;1.88;;;11.40;70.00;;;;;;5125795;27;27328;-48
2021/01/21 10:13:08;;;;;;;2.50;1.30;;;11.90;68.60;;;;;;5125066;27;27366;-48
2021/01/21 10:15:53;;;;;;;2.88;1.42;;;12.20;67.80;;;;;;5125995;27;27435;-52
2021/01/21 10:18:37;;;;;;;1.50;1.17;;;12.10;68.20;;;;;;5125909;27;27352;-50
2021/01/21 10:21:22;;;;;;;2.05;1.20;;;12.30;67.10;;;;;;5124967;27;27421;-48
2021/01/21 10:24:07;;;;;;;2.28;1.40;;;12.60;66.80;;;;;;5125708;27;27376;-49
2021/01/21 10:26:51;;;;;;;2.22;1.20;;;12.70;66.80;;;;;;5125376;27;27367;-48
2021/01/21 10:29:36;;;;;;;0.95;0.85;;;12.70;66.80;;;;;;5125340;27;27454;-47
2021/01/21 10:32:20;;;;;;;1.95;1.17;;;12.40;67.30;;;;;;5124926;27;27417;-47
2021/01/21 10:35:05;;;;;;;1.13;0.88;;;12.20;67.70;;;;;;5125066;27;27414;-47
2021/01/21 10:37:50;;;;;;;1.70;1.17;;;12.20;68.50;;;;;;5125583;27;27430;-46
2021/01/21 10:40:34;;;;;;;1.90;1.02;;;12.30;68.70;;;;;;5125510;27;27422;-47
2021/01/21 10:43:18;;;;;;;1.70;0.90;;;12.50;68.80;;;;;;5125506;27;27464;-48
2021/01/21 10:46:04;;;;;;;1.73;1.10;;;13.00;68.00;;;;;;5125139;27;27458;-45
2021/01/21 10:48:48;;;;;;;1.35;1.00;;;13.30;67.30;;;;;;5125205;27;27457;-47
2021/01/21 10:51:32;;;;;;;2.05;1.10;;;13.60;67.10;;;;;;5125144;27;27410;-49
2021/01/21 10:54:17;;;;;;;1.30;1.00;;;13.70;66.80;;;;;;5125023;27;27497;-47
2021/01/21 10:57:01;;;;;;;1.42;0.90;;;13.90;66.20;;;;;;5121856;27;27468;-47
2021/01/21 10:59:46;;;;;;;1.52;0.90;;;14.20;66.10;;;;;;5124114;27;27413;-47
2021/01/21 11:02:30;;;;;;;1.40;1.00;;;14.70;65.20;;;;;;5125157;27;27393;-47
2021/01/21 11:05:15;;;;;;;3.05;1.00;;;15.40;63.70;;;;;;5124929;27;27390;-46
2021/01/21 11:08:00;;;;;;;1.05;0.93;;;15.80;62.60;;;;;;5124305;27;27631;-47
2021/01/21 11:10:45;;;;;;;0.77;0.70;;;16.00;62.20;;;;;;5125102;27;27419;-46
2021/01/21 11:13:32;;;;;;;0.60;0.60;;;16.00;61.90;;;;;;5121490;27;27374;-49
2021/01/21 11:16:16;;;;;;;1.50;0.98;;;16.00;61.70;;;;;;5124681;27;27496;-47
2021/01/21 11:19:01;;;;;;;0.98;0.75;;;15.90;62.20;;;;;;5124646;27;27369;-47
2021/01/21 11:21:45;;;;;;;1.38;1.00;;;15.90;62.80;;;;;;5124315;27;27393;-47
2021/01/21 11:24:30;;;;;;;1.23;0.80;;;15.80;63.20;;;;;;5124898;27;27377;-50
2021/01/21 11:27:15;;;;;;;2.20;1.13;;;15.60;63.30;;;;;;5124077;27;27338;-47
2021/01/21 11:30:00;;;;;;;2.08;1.13;;;15.40;64.20;;;;;;5124513;27;27429;-46
2021/01/21 11:32:45;;;;;;;2.10;0.90;;;15.20;64.30;;;;;;5121132;27;27389;-47
2021/01/21 11:35:29;;;;;;;1.38;0.93;;;14.90;64.00;;;;;;5124164;27;27329;-46
2021/01/21 11:38:14;;;;;;;3.15;1.13;;;14.80;64.30;;;;;;5121340;27;27918;-48
2021/01/21 11:40:58;;;;;;;2.40;1.10;;;14.70;64.40;;;;;;5121081;27;27401;-48
2021/01/21 11:43:43;;;;;;;20.10;1.48;;;14.60;64.50;;;;;;5124561;27;27381;-46
2021/01/21 11:46:27;;;;;;;2.90;1.20;;;14.50;64.60;;;;;;5124224;27;27361;-46
2021/01/21 11:49:12;;;;;;;2.17;1.40;;;14.50;64.70;;;;;;5127311;27;27320;-47
2021/01/21 11:51:58;;;;;;;2.10;0.95;;;14.40;65.30;;;;;;5126860;27;27412;-50
2021/01/21 11:54:42;;;;;;;1.70;1.00;;;14.30;65.40;;;;;;5127896;27;27369;-48
2021/01/21 11:57:27;;;;;;;1.98;1.13;;;14.20;65.70;;;;;;5128101;27;27330;-50
2021/01/21 12:00:12;;;;;;;1.80;1.10;;;14.10;65.70;;;;;;5128057;27;27417;-49
2021/01/21 12:02:57;;;;;;;1.65;0.82;;;14.00;65.40;;;;;;5127719;27;27324;-48
2021/01/21 12:05:43;;;;;;;5.10;1.40;;;13.90;65.80;;;;;;5128079;27;27418;-47
2021/01/21 12:08:28;;;;;;;2.60;1.20;;;13.80;65.80;;;;;;5127002;27;27324;-48
2021/01/21 12:11:13;;;;;;;2.53;1.23;;;13.80;66.30;;;;;;5126630;27;27419;-48
2021/01/21 12:13:58;;;;;;;2.65;1.50;;;13.90;66.30;;;;;;5124487;27;27321;-50
2021/01/21 12:16:43;;;;;;;4.15;2.00;;;13.90;66.10;;;;;;5127139;27;27426;-47
2021/01/21 12:19:28;;;;;;;4.93;2.90;;;13.80;65.90;;;;;;5127395;27;27390;-46
2021/01/21 12:22:13;;;;;;;4.82;2.90;;;13.60;66.10;;;;;;5124001;27;27374;-48
2021/01/21 12:24:57;;;;;;;6.47;2.92;;;13.50;66.90;;;;;;5124276;27;27394;-48
2021/01/21 12:27:42;;;;;;;4.97;2.97;;;13.30;66.70;;;;;;5127591;27;27347;-46
2021/01/21 12:30:27;;;;;;;4.93;2.78;;;13.20;67.30;;;;;;5127334;27;27389;-45
2021/01/21 12:33:12;;;;;;;5.90;3.53;;;13.20;67.20;;;;;;5127252;27;27900;-47
2021/01/21 12:35:56;;;;;;;4.65;3.00;;;13.10;67.20;;;;;;5126725;27;27449;-46
2021/01/21 12:38:41;;;;;;;4.75;2.72;;;13.20;67.20;;;;;;5127559;27;27531;-46
2021/01/21 12:41:26;;;;;;;4.20;3.10;;;13.20;67.80;;;;;;5127477;27;27394;-47
2021/01/21 12:44:11;;;;;;;5.32;2.65;;;13.40;67.80;;;;;;5126525;27;27472;-47
2021/01/21 12:46:55;;;;;;;4.10;3.05;;;13.50;67.50;;;;;;5126885;27;27479;-47
2021/01/21 12:49:40;;;;;;;4.40;2.92;;;13.50;67.20;;;;;;5127345;27;27452;-46
2021/01/21 12:52:25;;;;;;;5.15;3.00;;;13.60;67.30;;;;;;5126648;27;27465;-47
2021/01/21 12:55:11;;;;;;;5.47;2.72;;;13.70;67.40;;;;;;5126819;27;27403;-44
2021/01/21 12:57:55;;;;;;;4.32;2.70;;;13.90;66.70;;;;;;5126053;27;27456;-45
2021/01/21 13:00:40;;;;;;;3.67;2.30;;;14.20;66.40;;;;;;5126704;27;27468;-47
2021/01/21 13:03:25;;;;;;;4.32;2.58;;;14.40;65.40;;;;;;5126657;27;27414;-47
2021/01/21 13:06:09;;;;;;;6.45;3.22;;;14.50;65.30;;;;;;5126406;27;27980;-44
2021/01/21 13:08:54;;;;;;;6.20;2.88;;;14.60;65.00;;;;;;5126463;27;27471;-48
2021/01/21 13:11:39;;;;;;;4.50;2.60;;;14.70;64.90;;;;;;5125942;27;28235;-47
2021/01/21 13:14:23;;;;;;;4.93;3.13;;;14.70;62.20;;;;;;5126575;27;27467;-48
2021/01/21 13:17:08;;;;;;;5.15;2.60;;;14.60;61.00;;;;;;5126555;27;27411;-46
2021/01/21 13:19:52;;;;;;;4.22;2.53;;;14.50;62.30;;;;;;5126443;27;27464;-46
2021/01/21 13:22:37;;;;;;;5.00;2.70;;;14.50;63.50;;;;;;5126479;27;27378;-45
2021/01/21 13:25:21;;;;;;;3.97;2.33;;;14.50;64.10;;;;;;5126702;27;27384;-47
2021/01/21 13:28:06;;;;;;;4.20;2.55;;;14.50;64.40;;;;;;5126353;27;27405;-48
2021/01/21 13:30:50;;;;;;;3.88;2.28;;;14.40;65.00;;;;;;5126137;27;27444;-46
2021/01/21 13:33:35;;;;;;;5.28;3.03;;;14.40;65.30;;;;;;5126309;27;27405;-46
2021/01/21 13:36:19;;;;;;;4.75;2.85;;;14.40;65.60;;;;;;5126445;27;27369;-46
2021/01/21 13:39:04;;;;;;;4.63;2.80;;;14.20;65.70;;;;;;5126017;27;27380;-47
2021/01/21 13:41:48;;;;;;;4.88;3.35;;;14.20;65.50;;;;;;5126189;27;27388;-47
2021/01/21 13:44:33;;;;;;;6.90;3.33;;;14.10;64.70;;;;;;5126470;27;27340;-47
2021/01/21 13:47:17;;;;;;;5.32;2.80;;;14.10;64.40;;;;;;5122665;27;27326;-47
2021/01/21 13:50:03;;;;;;;9.95;4.07;;;14.00;64.20;;;;;;5122418;27;27371;-50
2021/01/21 13:52:47;;;;;;;3.28;2.40;;;13.90;64.20;;;;;;5125830;27;27355;-46
2021/01/21 13:55:32;;;;;;;6.20;3.17;;;13.90;64.80;;;;;;5125853;27;27433;-47
2021/01/21 13:58:16;;;;;;;5.07;2.75;;;13.80;65.40;;;;;;5121992;27;27413;-48
2021/01/21 14:01:01;;;;;;;4.50;2.15;;;13.70;65.00;;;;;;5125730;27;27479;-47
2021/01/21 14:03:46;;;;;;;3.33;1.40;;;13.60;64.10;;;;;;5125784;27;27464;-46
2021/01/21 14:06:31;;;;;;;2.58;1.30;;;13.40;64.40;;;;;;5125176;27;27540;-46
2021/01/21 14:09:17;;;;;;;2.30;1.20;;;13.20;64.90;;;;;;5125752;27;27513;-44
2021/01/21 14:12:01;;;;;;;1.80;1.10;;;13.00;66.20;;;;;;5125426;27;27442;-49
2021/01/21 14:14:46;;;;;;;2.25;1.15;;;12.80;67.50;;;;;;5125580;27;27492;-47
2021/01/21 14:17:30;;;;;;;4.72;1.23;;;12.60;68.60;;;;;;5125644;27;27484;-46
2021/01/21 14:20:15;;;;;;;3.13;1.05;;;12.40;69.30;;;;;;5125605;27;27414;-47
2021/01/21 14:22:59;;;;;;;1.55;1.10;;;12.20;69.90;;;;;;5125484;27;27434;-48
2021/01/21 14:25:43;;;;;;;1.88;1.20;;;12.00;70.30;;;;;;5122352;27;27390;-48
2021/01/21 14:28:28;;;;;;;2.08;1.30;;;11.90;71.30;;;;;;5125807;27;27433;-50
2021/01/21 14:31:13;;;;;;;2.70;1.10;;;11.80;72.00;;;;;;5125227;27;27505;-48
2021/01/21 14:33:58;;;;;;;1.35;1.10;;;11.70;72.50;;;;;;5124908;27;27536;-49
2021/01/21 14:36:43;;;;;;;2.05;1.20;;;11.60;72.80;;;;;;5125561;27;27473;-47
2021/01/21 14:39:27;;;;;;;1.48;1.15;;;11.60;73.10;;;;;;5125623;27;27418;-48
2021/01/21 14:42:12;;;;;;;2.60;0.88;;;11.60;73.40;;;;;;5125461;27;27432;-49
2021/01/21 14:44:57;;;;;;;2.60;1.30;;;11.60;73.70;;;;;;5125431;27;27326;-50